createdAt,value
2024-02-02T00:00:36.140Z,17.00
2024-02-02T00:03:04.348Z,12.63
2024-02-02T00:05:32.406Z,13.30
2024-02-02T00:08:00.363Z,15.03
2024-02-02T00:10:29.941Z,16.90
2024-02-02T00:12:58.139Z,20.10
2024-02-02T00:15:26.413Z,13.53
2024-02-02T00:17:54.523Z,14.30
2024-02-02T00:20:22.626Z,20.00
2024-02-02T00:22:52.118Z,14.23
2024-02-02T00:25:20.617Z,14.20
2024-02-02T00:27:49.980Z,14.33
2024-02-02T00:30:18.968Z,15.83
2024-02-02T00:32:47.111Z,17.53
2024-02-02T00:35:15.487Z,16.00
2024-02-02T00:37:45.386Z,15.50
2024-02-02T00:40:13.394Z,15.90
2024-02-02T00:42:42.302Z,16.53
2024-02-02T00:45:12.387Z,15.43
2024-02-02T00:47:40.378Z,15.07
2024-02-02T00:50:09.669Z,18.47
2024-02-02T00:52:37.642Z,17.80
2024-02-02T00:55:06.070Z,15.13
2024-02-02T00:57:34.122Z,15.40
2024-02-02T01:00:02.096Z,14.83
2024-02-02T01:02:32.420Z,18.27
2024-02-02T01:05:00.563Z,16.10
2024-02-02T01:07:28.849Z,15.57
2024-02-02T01:09:56.832Z,13.97
2024-02-02T01:12:25.093Z,14.33
2024-02-02T01:14:53.549Z,15.57
2024-02-02T01:17:22.194Z,17.83
2024-02-02T01:19:51.804Z,16.93
2024-02-02T01:22:19.787Z,15.40
2024-02-02T01:24:47.726Z,19.60
2024-02-02T01:27:15.941Z,16.17
2024-02-02T01:29:43.905Z,14.00
2024-02-02T01:32:11.948Z,12.43
2024-02-02T01:34:40.047Z,14.43
2024-02-02T01:37:09.522Z,17.23
2024-02-02T01:39:37.498Z,17.07
2024-02-02T01:42:05.944Z,14.80
2024-02-02T01:44:33.930Z,16.03
2024-02-02T01:47:01.981Z,16.83
2024-02-02T01:49:30.574Z,16.63
2024-02-02T01:51:59.003Z,12.97
2024-02-02T01:54:28.801Z,12.40
2024-02-02T01:56:57.115Z,12.50
2024-02-02T01:59:25.774Z,14.33
2024-02-02T02:01:54.205Z,11.63
2024-02-02T02:04:22.285Z,13.30
2024-02-02T02:06:50.392Z,16.77
2024-02-02T02:09:18.533Z,15.80
2024-02-02T02:11:48.123Z,13.77
2024-02-02T02:14:16.354Z,12.97
2024-02-02T02:16:44.541Z,16.40
2024-02-02T02:19:15.768Z,15.87
2024-02-02T02:21:45.457Z,13.77
2024-02-02T02:24:13.564Z,13.93
2024-02-02T02:26:45.692Z,11.23
2024-02-02T02:29:13.710Z,13.20
2024-02-02T02:31:41.911Z,17.40
2024-02-02T02:34:10.031Z,11.60
2024-02-02T02:36:38.097Z,13.93
2024-02-02T02:39:07.457Z,14.57
2024-02-02T02:41:35.423Z,13.30
2024-02-02T02:44:03.392Z,12.53
2024-02-02T02:46:31.452Z,12.90
2024-02-02T02:49:00.634Z,12.53
2024-02-02T02:51:28.824Z,16.47
2024-02-02T02:53:56.891Z,11.50
2024-02-02T02:56:26.213Z,12.43
2024-02-02T02:58:54.168Z,17.00
2024-02-02T03:01:22.877Z,12.70
2024-02-02T03:03:50.942Z,16.87
2024-02-02T03:06:19.068Z,13.73
2024-02-02T03:08:47.084Z,10.87
2024-02-02T03:11:15.233Z,12.40
2024-02-02T03:13:44.737Z,14.47
2024-02-02T03:16:12.971Z,10.73
2024-02-02T03:18:43.596Z,11.30
2024-02-02T03:21:12.959Z,10.70
2024-02-02T03:23:41.000Z,9.80
2024-02-02T03:26:08.956Z,14.10
2024-02-02T03:28:36.924Z,14.37
2024-02-02T03:31:06.760Z,10.73
2024-02-02T03:33:34.882Z,13.93
2024-02-02T03:36:02.972Z,10.80
2024-02-02T03:38:31.253Z,11.40
2024-02-02T03:40:59.223Z,12.93
2024-02-02T03:43:27.194Z,12.60
2024-02-02T03:45:55.151Z,11.20
2024-02-02T03:48:25.064Z,11.43
2024-02-02T03:50:53.122Z,11.07
2024-02-02T03:53:21.335Z,13.17
2024-02-02T03:55:49.309Z,10.03
2024-02-02T03:58:17.584Z,13.47
2024-02-02T04:00:46.404Z,14.47
2024-02-02T04:03:14.621Z,16.00
2024-02-02T04:05:44.144Z,11.37
2024-02-02T04:08:12.557Z,12.10
2024-02-02T04:10:40.573Z,9.33
2024-02-02T04:13:08.630Z,12.03
2024-02-02T04:15:37.094Z,11.20
2024-02-02T04:18:05.527Z,10.27
2024-02-02T04:20:33.686Z,19.33
2024-02-02T04:23:03.108Z,11.73
2024-02-02T04:25:31.295Z,16.83
2024-02-02T04:27:59.257Z,10.23
2024-02-02T04:30:30.100Z,14.50
2024-02-02T04:32:58.169Z,9.80
2024-02-02T04:35:26.163Z,11.17
2024-02-02T04:37:54.144Z,10.37
2024-02-02T04:40:23.469Z,12.77
2024-02-02T04:42:51.762Z,12.53
2024-02-02T04:45:19.958Z,9.03
2024-02-02T04:47:48.161Z,12.33
2024-02-02T04:50:16.309Z,10.63
2024-02-02T04:52:44.327Z,11.40
2024-02-02T04:55:12.372Z,8.43
2024-02-02T04:57:41.837Z,13.97
2024-02-02T05:00:11.013Z,9.53
2024-02-02T05:02:39.516Z,11.30
2024-02-02T05:05:07.783Z,13.80
2024-02-02T05:07:36.659Z,13.87
2024-02-02T05:10:05.627Z,9.33
2024-02-02T05:12:33.920Z,11.93
2024-02-02T05:15:03.358Z,16.30
2024-02-02T05:17:31.639Z,13.10
2024-02-02T05:19:59.807Z,12.60
2024-02-02T05:22:27.774Z,14.47
2024-02-02T05:24:55.853Z,13.60
2024-02-02T05:27:24.016Z,13.93
2024-02-02T05:29:52.060Z,13.97
2024-02-02T05:32:21.469Z,14.87
2024-02-02T05:34:49.484Z,11.43
2024-02-02T05:37:19.098Z,14.03
2024-02-02T05:39:47.067Z,14.10
2024-02-02T05:42:15.691Z,10.67
2024-02-02T05:44:43.865Z,19.37
2024-02-02T05:47:11.806Z,14.90
2024-02-02T05:49:41.206Z,18.47
2024-02-02T05:52:10.364Z,13.40
2024-02-02T05:54:38.759Z,13.70
2024-02-02T05:57:06.757Z,13.10
2024-02-02T05:59:34.722Z,21.33
2024-02-02T06:02:02.676Z,17.87
2024-02-02T06:04:30.987Z,13.43
2024-02-02T06:07:00.489Z,15.73
2024-02-02T06:09:28.568Z,14.03
2024-02-02T06:11:56.684Z,16.30
2024-02-02T06:14:26.457Z,14.33
2024-02-02T06:16:54.443Z,14.77
2024-02-02T06:19:22.536Z,14.20
2024-02-02T06:21:51.140Z,15.33
2024-02-02T06:24:20.517Z,15.63
2024-02-02T06:26:48.490Z,17.90
2024-02-02T06:29:16.472Z,15.70
2024-02-02T06:31:44.401Z,13.00
2024-02-02T06:34:12.458Z,13.53
2024-02-02T06:36:40.564Z,13.57
2024-02-02T06:39:08.955Z,12.73
2024-02-02T06:41:38.285Z,11.90
2024-02-02T06:44:06.441Z,15.13
2024-02-02T06:46:34.539Z,13.87
2024-02-02T06:49:02.592Z,12.90
2024-02-02T06:51:30.651Z,12.20
2024-02-02T06:53:58.671Z,10.77
2024-02-02T06:56:39.534Z,12.43
2024-02-02T06:59:09.253Z,11.87
2024-02-02T07:01:38.256Z,11.47
2024-02-02T07:04:09.853Z,12.20
2024-02-02T07:06:39.475Z,12.70
2024-02-02T07:09:23.657Z,8.80
2024-02-02T07:12:01.569Z,13.00
2024-02-02T07:14:47.953Z,11.33
2024-02-02T07:17:39.447Z,7.60
2024-02-02T07:20:16.563Z,11.20
2024-02-02T07:22:45.116Z,9.23
2024-02-02T07:25:15.704Z,10.80
2024-02-02T07:27:55.742Z,12.13
2024-02-02T07:30:52.265Z,10.03
2024-02-02T07:33:25.562Z,14.20
2024-02-02T07:35:54.692Z,11.97
2024-02-02T07:38:43.790Z,10.90
2024-02-02T07:41:13.872Z,12.20
2024-02-02T07:43:43.482Z,8.97
2024-02-02T07:46:14.379Z,10.77
2024-02-02T07:48:44.604Z,11.50
2024-02-02T07:51:13.172Z,16.90
2024-02-02T07:53:41.417Z,16.40
2024-02-02T07:56:10.458Z,17.03
2024-02-02T07:58:38.592Z,11.20
2024-02-02T08:01:08.972Z,11.30
2024-02-02T08:03:37.051Z,9.20
2024-02-02T08:06:05.717Z,12.90
2024-02-02T08:08:36.997Z,9.57
2024-02-02T08:11:05.215Z,9.50
2024-02-02T08:13:33.182Z,10.00
2024-02-02T08:16:01.415Z,10.47
2024-02-02T08:18:31.555Z,11.60
2024-02-02T08:20:59.623Z,8.60
2024-02-02T08:23:27.599Z,10.80
2024-02-02T08:25:55.702Z,5.67
2024-02-02T08:28:23.756Z,8.17
2024-02-02T08:30:51.925Z,11.10
2024-02-02T08:33:20.166Z,9.80
2024-02-02T08:35:49.664Z,8.83
2024-02-02T08:38:18.961Z,7.37
2024-02-02T08:40:49.217Z,9.80
2024-02-02T08:43:18.549Z,7.00
2024-02-02T08:46:11.861Z,10.00
2024-02-02T08:48:45.712Z,9.33
2024-02-02T08:51:48.215Z,8.33
2024-02-02T08:54:37.557Z,9.50
2024-02-02T08:57:35.075Z,8.37
2024-02-02T09:00:13.423Z,11.47
2024-02-02T09:02:54.940Z,14.07
2024-02-02T09:05:24.163Z,13.07
2024-02-02T09:07:54.129Z,9.67
2024-02-02T09:10:58.408Z,17.00
2024-02-02T09:13:31.096Z,21.27
2024-02-02T09:15:59.255Z,7.23
2024-02-02T09:18:34.736Z,12.10
2024-02-02T09:21:03.954Z,7.90
2024-02-02T09:23:33.695Z,9.37
2024-02-02T09:26:02.058Z,8.23
2024-02-02T09:28:44.205Z,6.80
2024-02-02T09:31:17.818Z,9.23
2024-02-02T09:33:51.586Z,7.43
2024-02-02T09:36:21.290Z,6.73
2024-02-02T09:38:59.321Z,7.57
2024-02-02T09:41:55.754Z,7.60
2024-02-02T09:44:45.374Z,7.90
2024-02-02T09:47:29.573Z,6.20
2024-02-02T09:50:11.562Z,6.03
2024-02-02T09:52:51.682Z,4.53
2024-02-02T09:55:24.793Z,6.23
2024-02-02T09:57:59.321Z,9.90
2024-02-02T10:00:43.259Z,5.80
2024-02-02T10:03:22.128Z,8.03
2024-02-02T10:06:07.522Z,6.37
2024-02-02T10:08:53.484Z,5.33
2024-02-02T10:11:38.987Z,7.13
2024-02-02T10:14:26.084Z,5.63
2024-02-02T10:17:04.311Z,7.00
2024-02-02T10:19:57.756Z,9.17
2024-02-02T10:22:48.729Z,6.20
2024-02-02T10:25:32.420Z,6.20
2024-02-02T10:28:18.816Z,3.10
2024-02-02T10:30:58.374Z,6.47
2024-02-02T10:33:36.618Z,6.10
2024-02-02T10:36:13.897Z,6.40
2024-02-02T10:39:06.069Z,7.90
2024-02-02T10:41:42.177Z,6.73
2024-02-02T10:44:19.696Z,5.30
2024-02-02T10:46:58.110Z,4.97
2024-02-02T10:49:41.602Z,6.57
2024-02-02T10:52:22.000Z,7.63
2024-02-02T10:55:05.215Z,4.10
2024-02-02T10:57:38.501Z,5.23
2024-02-02T11:00:12.705Z,23.97
2024-02-02T11:03:10.452Z,6.80
2024-02-02T11:05:43.466Z,6.63
2024-02-02T11:08:17.329Z,4.40
2024-02-02T11:10:53.959Z,4.87
2024-02-02T11:13:32.544Z,4.40
2024-02-02T11:16:12.795Z,6.32
2024-02-02T11:18:57.036Z,6.10
2024-02-02T11:21:48.928Z,6.33
2024-02-02T11:24:23.621Z,7.10
2024-02-02T11:26:58.445Z,6.03
2024-02-02T11:29:38.474Z,5.73
2024-02-02T11:32:23.096Z,4.57
2024-02-02T11:34:57.399Z,4.37
2024-02-02T11:37:35.068Z,5.37
2024-02-02T11:40:09.328Z,6.30
2024-02-02T11:42:39.893Z,4.57
2024-02-02T11:45:12.851Z,5.67
2024-02-02T11:47:48.200Z,2.77
2024-02-02T11:50:19.384Z,4.03
2024-02-02T11:52:56.743Z,8.07
2024-02-02T11:55:29.342Z,3.20
2024-02-02T11:58:04.315Z,5.50
2024-02-02T12:00:47.041Z,3.97
2024-02-02T12:03:30.403Z,4.80
2024-02-02T12:06:09.970Z,4.70
2024-02-02T12:08:48.236Z,6.60
2024-02-02T12:11:23.236Z,4.47
2024-02-02T12:14:00.092Z,4.67
2024-02-02T12:16:28.110Z,5.13
2024-02-02T12:18:56.137Z,4.87
2024-02-02T12:21:24.628Z,5.30
2024-02-02T12:23:54.007Z,5.13
2024-02-02T12:26:23.820Z,4.57
2024-02-02T12:28:53.097Z,4.80
2024-02-02T12:31:21.151Z,4.60
2024-02-02T12:33:49.314Z,4.33
2024-02-02T12:36:19.305Z,6.50
2024-02-02T12:38:47.865Z,4.60
2024-02-02T12:41:17.263Z,3.33
2024-02-02T12:43:48.024Z,5.37
2024-02-02T12:46:16.425Z,3.60
2024-02-02T12:48:44.566Z,4.37
2024-02-02T12:51:12.649Z,3.77
2024-02-02T12:53:41.845Z,4.13
2024-02-02T12:56:10.254Z,3.03
2024-02-02T12:58:39.633Z,3.30
2024-02-02T13:01:08.118Z,3.90
2024-02-02T13:03:43.666Z,3.80
2024-02-02T13:06:13.156Z,2.43
2024-02-02T13:08:42.160Z,3.53
2024-02-02T13:11:20.905Z,3.53
2024-02-02T13:13:50.222Z,4.03
2024-02-02T13:16:25.620Z,3.60
2024-02-02T13:18:54.234Z,4.70
2024-02-02T13:21:28.152Z,5.63
2024-02-02T13:23:57.327Z,3.00
2024-02-02T13:26:37.522Z,3.00
2024-02-02T13:29:08.845Z,3.40
2024-02-02T13:31:38.288Z,2.23
2024-02-02T13:34:06.783Z,6.30
2024-02-02T13:36:40.537Z,3.20
2024-02-02T13:39:19.641Z,3.13
2024-02-02T13:41:48.893Z,3.10
2024-02-02T13:44:24.319Z,3.50
2024-02-02T13:46:54.052Z,2.93
2024-02-02T13:49:25.697Z,2.23
2024-02-02T13:51:54.183Z,2.43
2024-02-02T13:54:23.260Z,2.27
2024-02-02T13:56:53.065Z,2.27
2024-02-02T13:59:22.513Z,6.83
2024-02-02T14:01:52.917Z,3.00
2024-02-02T14:04:26.367Z,2.17
2024-02-02T14:06:54.559Z,1.90
2024-02-02T14:09:23.338Z,1.90
2024-02-02T14:11:52.148Z,2.67
2024-02-02T14:14:27.398Z,2.77
2024-02-02T14:17:03.080Z,3.00
2024-02-02T14:19:31.181Z,3.00
2024-02-02T14:22:06.806Z,2.60
2024-02-02T14:24:35.498Z,2.63
2024-02-02T14:27:04.578Z,2.87
2024-02-02T14:29:43.221Z,2.80
2024-02-02T14:32:12.449Z,2.30
2024-02-02T14:34:40.585Z,2.03
2024-02-02T14:37:10.960Z,2.93
2024-02-02T14:39:38.920Z,1.97
2024-02-02T14:42:10.110Z,2.40
2024-02-02T14:44:38.569Z,2.40
2024-02-02T14:47:10.250Z,2.20
2024-02-02T14:49:38.310Z,2.90
2024-02-02T14:52:07.023Z,2.70
2024-02-02T14:54:35.076Z,2.77
2024-02-02T14:57:03.245Z,3.60
2024-02-02T14:59:40.594Z,2.20
2024-02-02T15:02:10.365Z,2.80
2024-02-02T15:04:38.395Z,2.93
2024-02-02T15:07:06.854Z,2.40
2024-02-02T15:09:35.150Z,3.33
2024-02-02T15:12:05.554Z,3.40
2024-02-02T15:14:35.563Z,2.23
2024-02-02T15:17:04.394Z,2.80
2024-02-02T15:19:33.909Z,2.70
2024-02-02T15:22:02.194Z,2.60
2024-02-02T15:24:31.545Z,3.07
2024-02-02T15:26:59.965Z,2.50
2024-02-02T15:29:27.977Z,2.97
2024-02-02T15:31:55.916Z,2.27
2024-02-02T15:34:24.659Z,4.50
2024-02-02T15:36:55.112Z,4.23
2024-02-02T15:39:30.540Z,4.13
2024-02-02T15:42:05.888Z,4.17
2024-02-02T15:44:33.885Z,3.03
2024-02-02T15:47:04.635Z,2.13
2024-02-02T15:49:33.000Z,2.20
2024-02-02T15:52:03.448Z,5.40
2024-02-02T15:54:31.433Z,2.30
2024-02-02T15:56:59.399Z,1.90
2024-02-02T15:59:27.369Z,3.80
2024-02-02T16:01:55.398Z,2.10
2024-02-02T16:04:23.602Z,2.33
2024-02-02T16:07:04.900Z,3.23
2024-02-02T16:09:38.022Z,2.17
2024-02-02T16:12:07.640Z,2.20
2024-02-02T16:14:35.745Z,4.53
2024-02-02T16:17:04.079Z,2.17
2024-02-02T16:19:32.170Z,2.47
2024-02-02T16:22:00.360Z,3.33
2024-02-02T16:24:29.788Z,2.00
2024-02-02T16:26:58.396Z,2.23
2024-02-02T16:29:26.379Z,2.37
2024-02-02T16:31:54.344Z,2.20
2024-02-02T16:34:22.416Z,2.17
2024-02-02T16:36:50.604Z,2.70
2024-02-02T16:39:18.703Z,3.03
2024-02-02T16:41:48.084Z,2.10
2024-02-02T16:44:17.095Z,2.00
2024-02-02T16:46:45.758Z,3.80
2024-02-02T16:49:13.876Z,2.67
2024-02-02T16:51:42.830Z,2.27
2024-02-02T16:54:11.341Z,2.13
2024-02-02T16:56:39.423Z,6.23
2024-02-02T16:59:10.493Z,3.35
2024-02-02T17:01:38.500Z,2.70
2024-02-02T17:04:06.763Z,1.90
2024-02-02T17:06:35.405Z,2.53
2024-02-02T17:09:04.224Z,2.20
2024-02-02T17:11:32.178Z,2.43
2024-02-02T17:14:00.105Z,2.23
2024-02-02T17:16:29.560Z,2.87
2024-02-02T17:18:57.607Z,1.97
2024-02-02T17:21:25.734Z,3.33
2024-02-02T17:23:54.070Z,3.73
2024-02-02T17:26:22.159Z,2.37
2024-02-02T17:28:51.685Z,2.07
2024-02-02T17:31:23.090Z,3.20
2024-02-02T17:33:52.595Z,2.27
2024-02-02T17:36:20.654Z,3.17
2024-02-02T17:38:49.456Z,2.10
2024-02-02T17:41:18.421Z,2.77
2024-02-02T17:43:47.498Z,2.20
2024-02-02T17:46:16.367Z,2.20
2024-02-02T17:48:44.488Z,2.87
2024-02-02T17:51:19.286Z,2.50
2024-02-02T17:53:47.603Z,2.50
2024-02-02T17:56:15.856Z,2.73
2024-02-02T17:58:43.816Z,7.00
2024-02-02T18:01:12.808Z,2.33
2024-02-02T18:03:40.926Z,2.20
2024-02-02T18:06:09.100Z,2.30
2024-02-02T18:08:38.520Z,3.85
2024-02-02T18:11:08.157Z,4.60
2024-02-02T18:13:36.124Z,2.57
2024-02-02T18:16:04.542Z,2.47
2024-02-02T18:18:32.671Z,2.80
2024-02-02T18:21:00.731Z,3.90
2024-02-02T18:23:32.472Z,2.73
2024-02-02T18:26:02.275Z,2.40
2024-02-02T18:28:30.253Z,2.37
2024-02-02T18:30:58.207Z,2.67
2024-02-02T18:33:26.396Z,2.43
2024-02-02T18:35:54.454Z,3.30
2024-02-02T18:38:22.392Z,4.83
2024-02-02T18:40:51.447Z,2.87
2024-02-02T18:43:20.924Z,2.20
2024-02-02T18:45:49.033Z,2.33
2024-02-02T18:48:17.254Z,3.70
2024-02-02T18:50:45.253Z,3.70
2024-02-02T18:53:13.230Z,3.50
2024-02-02T18:55:41.202Z,2.10
2024-02-02T18:58:09.137Z,2.40
2024-02-02T19:00:38.495Z,2.50
2024-02-02T19:03:08.463Z,2.03
2024-02-02T19:05:37.638Z,2.20
2024-02-02T19:08:06.340Z,2.67
2024-02-02T19:10:34.286Z,4.43
2024-02-02T19:13:02.465Z,2.43
2024-02-02T19:15:30.536Z,2.53
2024-02-02T19:18:03.285Z,1.90
2024-02-02T19:20:32.070Z,4.07
2024-02-02T19:23:00.031Z,3.50
2024-02-02T19:25:28.009Z,1.90
2024-02-02T19:27:56.034Z,1.97
2024-02-02T19:30:24.162Z,3.43
2024-02-02T19:32:52.941Z,4.07
2024-02-02T19:35:23.108Z,2.33
2024-02-02T19:37:53.724Z,2.50
2024-02-02T19:40:21.667Z,2.80
2024-02-02T19:42:49.639Z,1.87
2024-02-02T19:45:17.666Z,3.30
2024-02-02T19:47:47.296Z,2.30
2024-02-02T19:50:15.542Z,3.90
2024-02-02T19:52:44.908Z,7.10
2024-02-02T19:55:13.418Z,11.70
2024-02-02T19:57:41.405Z,2.90
2024-02-02T20:00:14.726Z,4.03
2024-02-02T20:02:43.057Z,2.80
2024-02-02T20:05:11.365Z,2.10
2024-02-02T20:07:39.483Z,2.37
2024-02-02T20:10:10.488Z,2.87
2024-02-02T20:12:38.669Z,2.27
2024-02-02T20:15:07.683Z,2.13
2024-02-02T20:17:35.914Z,2.97
2024-02-02T20:20:04.150Z,2.20
2024-02-02T20:22:32.153Z,2.30
2024-02-02T20:25:00.462Z,2.27
2024-02-02T20:27:30.388Z,2.97
2024-02-02T20:29:58.386Z,2.10
2024-02-02T20:32:26.346Z,2.47
2024-02-02T20:34:54.557Z,2.10
2024-02-02T20:37:22.618Z,3.47
2024-02-02T20:39:50.809Z,4.73
2024-02-02T20:42:18.901Z,3.17
2024-02-02T20:44:48.239Z,2.07
2024-02-02T20:47:16.461Z,1.90
2024-02-02T20:49:47.325Z,1.90
2024-02-02T20:52:17.321Z,4.33
2024-02-02T20:54:45.747Z,2.83
2024-02-02T20:57:13.768Z,2.47
2024-02-02T20:59:42.298Z,2.60
2024-02-02T21:02:11.655Z,2.33
2024-02-02T21:04:39.744Z,6.90
2024-02-02T21:07:12.125Z,2.83
2024-02-02T21:09:40.551Z,2.00
2024-02-02T21:12:11.189Z,1.70
2024-02-02T21:14:39.182Z,2.10
2024-02-02T21:17:07.134Z,2.10
2024-02-02T21:19:36.576Z,2.00
2024-02-02T21:22:06.965Z,2.23
2024-02-02T21:24:35.250Z,2.73
2024-02-02T21:27:04.281Z,2.50
2024-02-02T21:29:32.299Z,1.90
2024-02-02T21:32:00.255Z,2.03
2024-02-02T21:34:28.313Z,1.90
2024-02-02T21:36:57.788Z,2.67
2024-02-02T21:39:25.847Z,2.10
2024-02-02T21:41:53.833Z,1.97
2024-02-02T21:44:24.202Z,2.10
2024-02-02T21:46:52.689Z,1.93
2024-02-02T21:49:20.785Z,2.07
2024-02-02T21:51:48.857Z,2.10
2024-02-02T21:54:18.681Z,1.90
2024-02-02T21:56:46.680Z,2.20
2024-02-02T21:59:14.830Z,2.13
2024-02-02T22:01:42.887Z,1.80
2024-02-02T22:04:13.031Z,2.77
2024-02-02T22:06:41.346Z,1.80
2024-02-02T22:09:09.570Z,2.00
2024-02-02T22:11:39.075Z,2.53
2024-02-02T22:14:07.028Z,2.30
2024-02-02T22:16:34.965Z,2.10
2024-02-02T22:19:03.607Z,1.80
2024-02-02T22:21:31.964Z,1.90
2024-02-02T22:24:00.060Z,2.47
2024-02-02T22:26:28.232Z,2.00
2024-02-02T22:28:57.571Z,2.07
2024-02-02T22:31:25.645Z,1.90
2024-02-02T22:33:53.827Z,2.37
2024-02-02T22:36:25.270Z,2.20
2024-02-02T22:38:56.052Z,3.90
2024-02-02T22:41:32.730Z,2.00
2024-02-02T22:44:04.150Z,5.20
2024-02-02T22:46:32.813Z,2.00
2024-02-02T22:49:01.549Z,1.87
2024-02-02T22:51:29.733Z,1.90
2024-02-02T22:53:57.758Z,4.37
2024-02-02T22:56:25.832Z,2.20
2024-02-02T23:01:30.621Z,2.13
2024-02-02T23:03:58.660Z,2.37
2024-02-02T23:06:26.777Z,2.00
2024-02-02T23:08:54.787Z,2.00
2024-02-02T23:11:22.825Z,4.03
2024-02-02T23:13:51.110Z,2.43
2024-02-02T23:16:19.176Z,2.17
2024-02-02T23:18:49.068Z,2.73
2024-02-02T23:21:17.306Z,2.53
2024-02-02T23:23:45.317Z,1.90
2024-02-02T23:26:14.218Z,2.30
2024-02-02T23:28:42.931Z,2.10
2024-02-02T23:31:10.936Z,2.90
2024-02-02T23:33:38.925Z,2.47
2024-02-02T23:36:09.317Z,2.33
2024-02-02T23:38:37.327Z,2.10
2024-02-02T23:41:05.907Z,2.10
2024-02-02T23:43:34.108Z,2.73
2024-02-02T23:46:02.766Z,1.90
2024-02-02T23:48:30.954Z,1.70
2024-02-02T23:50:58.972Z,2.43
2024-02-02T23:53:28.363Z,2.17
2024-02-02T23:55:56.318Z,1.93
2024-02-02T23:58:24.942Z,3.00
